createdAt,value
2019-05-02T00:02:18.603Z,12.88
2019-05-02T00:04:50.959Z,14.18
2019-05-02T00:07:24.235Z,12.90
2019-05-02T00:09:56.337Z,14.25
2019-05-02T00:12:28.315Z,11.88
2019-05-02T00:15:02.435Z,10.75
2019-05-02T00:17:35.392Z,9.88
2019-05-02T00:20:08.733Z,11.10
2019-05-02T00:22:40.447Z,8.70
2019-05-02T00:25:16.011Z,7.80
2019-05-02T00:27:45.223Z,8.38
2019-05-02T00:30:18.213Z,8.23
2019-05-02T00:32:53.155Z,8.28
2019-05-02T00:35:23.789Z,9.53
2019-05-02T00:37:57.371Z,9.18
2019-05-02T00:40:28.926Z,10.75
2019-05-02T00:43:00.701Z,11.57
2019-05-02T00:45:32.609Z,10.80
2019-05-02T00:48:09.675Z,12.60
2019-05-02T00:50:45.456Z,12.18
2019-05-02T00:53:14.874Z,13.35
2019-05-02T00:55:47.039Z,13.60
2019-05-02T00:58:19.119Z,13.43
2019-05-02T01:00:53.173Z,13.20
2019-05-02T01:03:26.617Z,13.30
2019-05-02T01:05:58.244Z,11.70
2019-05-02T01:08:30.901Z,11.35
2019-05-02T01:11:03.809Z,12.07
2019-05-02T01:13:35.665Z,11.00
2019-05-02T01:16:07.551Z,10.50
2019-05-02T01:18:41.280Z,8.93
2019-05-02T01:21:13.735Z,6.90
2019-05-02T01:23:45.381Z,6.12
2019-05-02T01:26:17.212Z,5.97
2019-05-02T01:28:54.339Z,4.97
2019-05-02T01:31:28.107Z,4.60
2019-05-02T01:34:17.954Z,4.65
2019-05-02T01:36:51.797Z,4.30
2019-05-02T01:39:23.574Z,4.60
2019-05-02T01:41:55.437Z,4.03
2019-05-02T01:44:31.199Z,4.05
2019-05-02T01:47:00.356Z,4.10
2019-05-02T01:49:32.218Z,3.90
2019-05-02T01:52:04.148Z,4.00
2019-05-02T01:54:35.740Z,3.92
2019-05-02T01:57:08.764Z,3.95
2019-05-02T01:59:40.908Z,4.50
2019-05-02T02:02:12.771Z,4.65
2019-05-02T02:04:44.538Z,4.22
2019-05-02T02:07:19.947Z,3.90
2019-05-02T02:09:49.513Z,3.62
2019-05-02T02:12:21.350Z,4.08
2019-05-02T02:14:55.240Z,4.10
2019-05-02T02:17:26.267Z,4.60
2019-05-02T02:20:09.707Z,5.35
2019-05-02T02:22:43.404Z,4.47
2019-05-02T02:25:26.072Z,5.12
2019-05-02T02:27:59.754Z,4.40
2019-05-02T02:30:31.094Z,5.42
2019-05-02T02:33:07.743Z,5.75
2019-05-02T02:35:35.927Z,5.67
2019-05-02T02:38:07.686Z,5.58
2019-05-02T02:40:39.217Z,5.87
2019-05-02T02:43:32.218Z,6.05
2019-05-02T02:45:51.845Z,6.20
2019-05-02T02:48:22.646Z,7.05
2019-05-02T02:50:54.049Z,6.12
2019-05-02T02:53:31.719Z,6.78
2019-05-02T02:56:05.737Z,6.70
2019-05-02T02:58:45.717Z,7.65
2019-05-02T03:01:10.860Z,7.72
2019-05-02T03:03:42.481Z,7.53
2019-05-02T03:06:13.921Z,8.20
2019-05-02T03:08:48.891Z,7.20
2019-05-02T03:11:23.481Z,6.95
2019-05-02T03:14:11.387Z,7.80
2019-05-02T03:16:47.250Z,7.15
2019-05-02T03:19:21.170Z,7.50
2019-05-02T03:22:01.164Z,7.55
2019-05-02T03:24:28.760Z,6.92
2019-05-02T03:27:00.541Z,7.92
2019-05-02T03:29:41.017Z,8.23
2019-05-02T03:32:21.849Z,8.30
2019-05-02T03:34:52.339Z,7.12
2019-05-02T03:37:14.077Z,7.22
2019-05-02T03:39:49.538Z,7.12
2019-05-02T03:42:19.676Z,7.87
2019-05-02T03:44:56.273Z,7.55
2019-05-02T03:47:24.505Z,7.45
2019-05-02T03:49:56.581Z,7.22
2019-05-02T03:52:28.509Z,7.05
2019-05-02T03:55:00.421Z,7.40
2019-05-02T03:57:35.885Z,7.70
2019-05-02T04:00:13.828Z,7.37
2019-05-02T04:02:41.040Z,7.65
2019-05-02T04:05:12.861Z,6.62
2019-05-02T04:07:44.984Z,6.70
2019-05-02T04:10:36.467Z,7.40
2019-05-02T04:13:08.523Z,7.55
2019-05-02T04:15:44.673Z,7.45
2019-05-02T04:18:17.934Z,8.33
2019-05-02T04:20:52.016Z,7.20
2019-05-02T04:23:27.523Z,7.83
2019-05-02T04:25:57.318Z,7.45
2019-05-02T04:28:29.179Z,7.87
2019-05-02T04:31:01.279Z,7.78
2019-05-02T04:33:34.985Z,7.62
2019-05-02T04:36:14.180Z,7.87
2019-05-02T04:38:46.867Z,7.40
2019-05-02T04:41:21.347Z,8.08
2019-05-02T04:43:54.755Z,7.60
2019-05-02T04:46:26.989Z,9.00
2019-05-02T04:48:53.321Z,8.33
2019-05-02T04:51:27.641Z,8.75
2019-05-02T04:53:58.925Z,8.48
2019-05-02T04:56:31.619Z,9.15
2019-05-02T04:59:13.847Z,9.10
2019-05-02T05:01:43.404Z,9.55
2019-05-02T05:04:09.857Z,9.28
2019-05-02T05:06:54.940Z,9.43
2019-05-02T05:09:17.880Z,9.83
2019-05-02T05:11:48.964Z,9.23
2019-05-02T05:14:20.778Z,8.40
2019-05-02T05:16:55.697Z,7.83
2019-05-02T05:19:30.890Z,8.15
2019-05-02T05:22:04.323Z,7.37
2019-05-02T05:24:38.475Z,7.30
2019-05-02T05:27:13.243Z,7.50
2019-05-02T05:29:45.929Z,8.75
2019-05-02T05:32:17.908Z,8.30
2019-05-02T05:34:49.280Z,7.80
2019-05-02T05:37:20.948Z,8.45
2019-05-02T05:39:52.795Z,8.50
2019-05-02T05:42:31.841Z,8.20
2019-05-02T05:44:58.348Z,8.53
2019-05-02T05:47:29.922Z,8.48
2019-05-02T05:50:01.540Z,7.95
2019-05-02T05:52:37.995Z,7.87
2019-05-02T05:55:07.807Z,8.78
2019-05-02T05:57:39.623Z,7.42
2019-05-02T06:00:15.994Z,8.38
2019-05-02T06:02:53.862Z,7.70
2019-05-02T06:05:17.845Z,7.90
2019-05-02T06:07:49.541Z,7.65
2019-05-02T06:10:21.264Z,7.00
2019-05-02T06:12:52.810Z,7.72
2019-05-02T06:15:24.535Z,7.28
2019-05-02T06:17:59.956Z,7.35
2019-05-02T06:20:31.947Z,6.80
2019-05-02T06:23:03.545Z,7.97
2019-05-02T06:25:36.790Z,7.30
2019-05-02T06:28:08.275Z,7.60
2019-05-02T06:30:39.932Z,7.47
2019-05-02T06:33:11.682Z,6.47
2019-05-02T06:35:43.250Z,6.95
2019-05-02T06:38:15.110Z,5.53
2019-05-02T06:40:46.923Z,6.03
2019-05-02T06:43:18.522Z,5.25
2019-05-02T06:45:50.261Z,5.97
2019-05-02T06:48:21.814Z,5.92
2019-05-02T06:50:53.613Z,5.97
2019-05-02T06:53:25.440Z,6.08
2019-05-02T06:55:57.205Z,6.08
2019-05-02T06:58:28.960Z,5.62
2019-05-02T07:01:02.653Z,6.10
2019-05-02T07:03:34.305Z,6.40
2019-05-02T07:06:07.690Z,6.10
2019-05-02T07:08:39.459Z,6.55
2019-05-02T07:11:11.030Z,5.72
2019-05-02T07:13:43.834Z,5.95
2019-05-02T07:16:38.368Z,5.75
2019-05-02T07:19:16.729Z,5.58
2019-05-02T07:24:25.175Z,6.15
2019-05-02T07:26:56.920Z,5.85
2019-05-02T07:29:28.672Z,5.50
2019-05-02T07:32:02.565Z,5.90
2019-05-02T07:34:34.222Z,5.80
2019-05-02T07:37:08.433Z,5.28
2019-05-02T07:39:40.865Z,5.17
2019-05-02T07:42:12.162Z,5.30
2019-05-02T07:44:44.030Z,5.40
2019-05-02T07:47:15.772Z,5.35
2019-05-02T07:49:47.532Z,5.30
2019-05-02T07:52:19.296Z,5.35
2019-05-02T07:54:50.934Z,4.83
2019-05-02T07:57:25.228Z,5.17
2019-05-02T08:00:00.430Z,4.60
2019-05-02T08:02:28.774Z,4.12
2019-05-02T08:05:00.411Z,5.10
2019-05-02T08:07:34.314Z,4.12
2019-05-02T08:10:06.871Z,4.50
2019-05-02T08:12:38.670Z,4.78
2019-05-02T08:15:13.247Z,4.78
2019-05-02T08:17:43.621Z,5.10
2019-05-02T08:20:19.275Z,5.35
2019-05-02T08:22:50.476Z,5.90
2019-05-02T08:25:22.127Z,5.15
2019-05-02T08:27:55.606Z,5.62
2019-05-02T08:30:28.644Z,4.78
2019-05-02T08:33:00.208Z,4.83
2019-05-02T08:35:31.957Z,4.55
2019-05-02T08:38:03.655Z,4.00
2019-05-02T08:40:35.459Z,4.72
2019-05-02T08:43:09.196Z,4.65
2019-05-02T08:45:40.360Z,5.08
2019-05-02T08:48:12.095Z,5.25
2019-05-02T08:50:43.639Z,4.37
2019-05-02T08:53:19.861Z,5.10
2019-05-02T08:55:48.398Z,5.03
2019-05-02T08:58:20.133Z,4.20
2019-05-02T09:00:51.773Z,4.15
2019-05-02T09:03:23.426Z,3.10
2019-05-02T09:06:05.247Z,2.95
2019-05-02T09:08:28.295Z,2.80
2019-05-02T09:11:00.051Z,2.27
2019-05-02T09:13:33.021Z,2.75
2019-05-02T09:16:06.047Z,1.50
2019-05-02T09:18:46.561Z,1.87
2019-05-02T09:21:12.587Z,1.20
2019-05-02T09:23:44.166Z,1.17
2019-05-02T09:26:15.705Z,0.93
2019-05-02T09:28:47.516Z,0.93
2019-05-02T09:31:19.312Z,1.47
2019-05-02T09:33:52.074Z,1.87
2019-05-02T09:36:24.990Z,1.25
2019-05-02T09:38:57.716Z,1.30
2019-05-02T09:41:34.526Z,1.40
2019-05-02T09:44:04.421Z,1.30
2019-05-02T09:46:35.856Z,1.32
2019-05-02T09:49:13.430Z,1.40
2019-05-02T09:51:42.340Z,1.40
2019-05-02T09:54:13.934Z,1.40
2019-05-02T09:56:45.592Z,1.40
2019-05-02T09:59:27.830Z,1.60
2019-05-02T10:01:52.676Z,1.20
2019-05-02T10:04:24.363Z,1.20
2019-05-02T10:06:56.102Z,1.00
2019-05-02T10:09:28.017Z,1.00
2019-05-02T10:12:01.875Z,1.05
2019-05-02T10:14:33.226Z,1.27
2019-05-02T10:17:07.182Z,0.98
2019-05-02T10:19:41.234Z,1.57
2019-05-02T10:22:13.951Z,1.02
2019-05-02T10:24:45.880Z,1.47
2019-05-02T10:27:17.736Z,1.50
2019-05-02T10:29:49.265Z,1.50
2019-05-02T10:32:22.664Z,1.30
2019-05-02T10:34:56.744Z,1.52
2019-05-02T10:37:30.589Z,1.12
2019-05-02T10:40:02.427Z,1.10
2019-05-02T10:42:33.713Z,1.25
2019-05-02T10:45:15.080Z,1.12
2019-05-02T10:47:42.246Z,1.10
2019-05-02T10:50:15.675Z,0.78
2019-05-02T10:52:47.214Z,0.60
2019-05-02T10:55:21.686Z,0.82
2019-05-02T10:57:52.819Z,1.15
2019-05-02T11:00:26.415Z,0.82
2019-05-02T11:03:15.627Z,0.78
2019-05-02T11:05:52.780Z,0.70
2019-05-02T11:08:24.871Z,0.40
2019-05-02T11:10:56.446Z,0.70
2019-05-02T11:13:29.633Z,0.60
2019-05-02T11:16:19.197Z,0.70
2019-05-02T11:21:28.817Z,0.80
2019-05-02T11:24:02.380Z,0.60
2019-05-02T11:26:34.413Z,0.70
2019-05-02T11:29:06.006Z,0.60
2019-05-02T11:31:37.932Z,0.80
2019-05-02T11:34:09.612Z,0.60
2019-05-02T11:36:43.371Z,0.85
2019-05-02T11:39:21.533Z,0.80
2019-05-02T11:41:48.578Z,0.70
2019-05-02T11:44:22.475Z,0.60
2019-05-02T11:46:53.624Z,0.50
2019-05-02T11:49:25.275Z,0.95
2019-05-02T11:51:57.368Z,1.10
2019-05-02T11:54:29.094Z,0.80
2019-05-02T11:57:02.235Z,0.80
2019-05-02T11:59:33.783Z,0.60
2019-05-02T12:02:09.365Z,0.88
2019-05-02T12:04:41.799Z,0.70
2019-05-02T12:07:13.389Z,0.65
2019-05-02T12:09:51.983Z,0.60
2019-05-02T12:12:18.027Z,0.90
2019-05-02T12:14:49.738Z,1.00
2019-05-02T12:17:21.839Z,1.47
2019-05-02T12:19:53.301Z,1.10
2019-05-02T12:22:25.086Z,1.85
2019-05-02T12:24:58.468Z,0.60
2019-05-02T12:27:31.828Z,1.00
2019-05-02T12:30:03.615Z,1.60
2019-05-02T12:32:35.186Z,1.57
2019-05-02T12:35:06.991Z,1.10
2019-05-02T12:37:38.990Z,0.90
2019-05-02T12:40:12.178Z,1.10
2019-05-02T12:42:44.971Z,0.78
2019-05-02T12:45:17.241Z,1.00
2019-05-02T12:47:49.109Z,1.05
2019-05-02T12:50:22.490Z,0.88
2019-05-02T12:52:55.638Z,0.95
2019-05-02T12:55:27.260Z,1.32
2019-05-02T12:57:58.876Z,1.17
2019-05-02T13:00:32.016Z,1.27
2019-05-02T13:03:17.242Z,1.05
2019-05-02T13:05:49.123Z,1.27
2019-05-02T13:08:22.199Z,1.30
2019-05-02T13:11:06.694Z,1.60
2019-05-02T13:13:38.220Z,1.55
2019-05-02T13:16:12.055Z,1.00
2019-05-02T13:18:43.071Z,1.65
2019-05-02T13:21:17.129Z,1.40
2019-05-02T13:23:53.010Z,1.77
2019-05-02T13:26:27.251Z,2.10
2019-05-02T13:28:59.517Z,1.80
2019-05-02T13:31:37.907Z,1.70
2019-05-02T13:34:22.077Z,2.05
2019-05-02T13:36:57.766Z,2.52
2019-05-02T13:39:39.297Z,2.45
2019-05-02T13:42:12.558Z,2.22
2019-05-02T13:44:54.994Z,2.58
2019-05-02T13:47:27.892Z,2.30
2019-05-02T13:50:01.654Z,2.17
2019-05-02T13:52:33.681Z,1.80
2019-05-02T13:55:08.475Z,1.60
2019-05-02T13:57:46.182Z,1.60
2019-05-02T14:00:17.535Z,1.95
2019-05-02T14:02:49.148Z,2.12
2019-05-02T14:05:22.312Z,1.90
2019-05-02T14:07:57.166Z,1.70
2019-05-02T14:10:33.740Z,2.37
2019-05-02T14:13:04.199Z,1.65
2019-05-02T14:15:37.972Z,1.45
2019-05-02T14:18:12.294Z,2.20
2019-05-02T14:20:44.087Z,1.72
2019-05-02T14:23:15.744Z,2.00
2019-05-02T14:25:47.402Z,1.92
2019-05-02T14:28:19.038Z,2.00
2019-05-02T14:30:52.508Z,2.40
2019-05-02T14:33:25.727Z,1.90
2019-05-02T14:35:57.327Z,2.42
2019-05-02T14:38:29.157Z,2.27
2019-05-02T14:41:07.935Z,2.60
2019-05-02T14:43:53.609Z,1.90
2019-05-02T14:46:34.322Z,1.65
2019-05-02T14:48:59.476Z,2.58
2019-05-02T14:51:32.734Z,2.30
2019-05-02T14:54:08.399Z,2.83
2019-05-02T14:56:52.158Z,2.50
2019-05-02T14:59:23.440Z,2.45
2019-05-02T15:01:57.708Z,2.37
2019-05-02T15:04:31.942Z,2.30
2019-05-02T15:07:03.132Z,2.00
2019-05-02T15:09:36.305Z,2.08
2019-05-02T15:12:15.815Z,1.77
2019-05-02T15:14:43.615Z,1.90
2019-05-02T15:17:15.387Z,1.80
2019-05-02T15:19:47.128Z,1.72
2019-05-02T15:22:18.806Z,2.15
2019-05-02T15:24:53.242Z,2.40
2019-05-02T15:27:24.549Z,2.22
2019-05-02T15:30:01.971Z,2.20
2019-05-02T15:32:32.485Z,2.27
2019-05-02T15:35:08.244Z,2.33
2019-05-02T15:37:42.956Z,1.70
2019-05-02T15:42:56.724Z,2.30
2019-05-02T15:45:27.863Z,3.98
2019-05-02T15:48:02.527Z,4.80
2019-05-02T15:50:33.973Z,4.80
2019-05-02T15:53:12.496Z,4.08
2019-05-02T15:55:44.115Z,4.22
2019-05-02T15:58:22.676Z,3.05
2019-05-02T16:01:08.191Z,2.15
2019-05-02T16:03:47.732Z,3.00
2019-05-02T16:06:23.999Z,2.20
2019-05-02T16:08:52.793Z,2.33
2019-05-02T16:11:24.349Z,2.47
2019-05-02T16:13:56.382Z,2.35
2019-05-02T16:16:28.181Z,2.30
2019-05-02T16:19:02.180Z,2.17
2019-05-02T16:21:42.659Z,2.05
2019-05-02T16:24:22.913Z,2.02
2019-05-02T16:26:57.231Z,2.00
2019-05-02T16:29:29.250Z,1.80
2019-05-02T16:32:13.270Z,2.45
2019-05-02T16:34:52.086Z,2.30
2019-05-02T16:37:23.785Z,2.20
2019-05-02T16:39:56.379Z,2.12
2019-05-02T16:42:28.141Z,2.05
2019-05-02T16:45:00.013Z,1.95
2019-05-02T16:47:32.617Z,2.45
2019-05-02T16:50:06.826Z,2.85
2019-05-02T16:52:43.648Z,2.20
2019-05-02T16:55:21.082Z,2.58
2019-05-02T16:57:47.711Z,2.40
2019-05-02T17:00:22.749Z,2.00
2019-05-02T17:02:54.388Z,2.40
2019-05-02T17:05:26.196Z,2.22
2019-05-02T17:08:03.111Z,3.10
2019-05-02T17:10:42.340Z,3.15
2019-05-02T17:13:14.094Z,3.72
2019-05-02T17:15:45.643Z,4.72
2019-05-02T17:18:18.338Z,6.65
2019-05-02T17:20:53.552Z,7.30
2019-05-02T17:23:24.300Z,5.55
2019-05-02T17:25:56.366Z,4.28
2019-05-02T17:28:28.116Z,3.67
2019-05-02T17:30:59.979Z,3.83
2019-05-02T17:33:32.394Z,3.52
2019-05-02T17:36:04.045Z,2.80
2019-05-02T17:38:35.775Z,2.50
2019-05-02T17:41:07.980Z,3.27
2019-05-02T17:43:42.143Z,2.80
2019-05-02T17:46:18.676Z,2.67
2019-05-02T17:48:47.651Z,3.02
2019-05-02T17:51:33.901Z,2.35
2019-05-02T17:54:03.616Z,3.10
2019-05-02T17:56:35.373Z,2.17
2019-05-02T17:59:07.537Z,2.85
2019-05-02T18:01:41.828Z,3.08
2019-05-02T18:04:16.455Z,2.62
2019-05-02T18:06:51.045Z,2.20
2019-05-02T18:09:26.235Z,2.98
2019-05-02T18:11:55.542Z,3.22
2019-05-02T18:14:27.236Z,3.15
2019-05-02T18:16:59.058Z,2.85
2019-05-02T18:19:31.596Z,2.77
2019-05-02T18:22:07.059Z,3.17
2019-05-02T18:24:37.314Z,2.70
2019-05-02T18:27:10.388Z,3.50
2019-05-02T18:29:45.445Z,4.03
2019-05-02T18:32:17.487Z,3.72
2019-05-02T18:34:48.176Z,3.75
2019-05-02T18:37:21.773Z,3.47
2019-05-02T18:39:55.857Z,4.70
2019-05-02T18:42:26.283Z,5.25
2019-05-02T18:44:58.405Z,4.62
2019-05-02T18:47:29.981Z,3.62
2019-05-02T18:50:06.139Z,2.95
2019-05-02T18:52:42.919Z,2.90
2019-05-02T18:55:09.142Z,3.10
2019-05-02T18:57:42.365Z,3.00
2019-05-02T19:00:15.240Z,2.92
2019-05-02T19:02:46.703Z,3.42
2019-05-02T19:05:20.543Z,3.55
2019-05-02T19:07:56.221Z,3.40
2019-05-02T19:10:25.745Z,3.98
2019-05-02T19:13:00.958Z,4.25
2019-05-02T19:15:34.366Z,3.50
2019-05-02T19:18:04.072Z,3.20
2019-05-02T19:20:56.803Z,3.20
2019-05-02T19:23:25.207Z,4.47
2019-05-02T19:25:56.654Z,3.72
2019-05-02T19:28:36.757Z,3.80
2019-05-02T19:31:06.935Z,3.35
2019-05-02T19:33:37.425Z,3.87
2019-05-02T19:36:09.825Z,4.72
2019-05-02T19:38:42.811Z,4.85
2019-05-02T19:41:14.404Z,3.60
2019-05-02T19:43:49.901Z,4.22
2019-05-02T19:46:25.414Z,4.35
2019-05-02T19:48:52.681Z,3.37
2019-05-02T19:51:24.467Z,3.67
2019-05-02T19:53:59.440Z,3.83
2019-05-02T19:56:33.430Z,3.80
2019-05-02T19:59:02.825Z,3.10
2019-05-02T20:01:34.623Z,3.87
2019-05-02T20:04:09.288Z,3.17
2019-05-02T20:06:39.544Z,4.10
2019-05-02T20:09:11.808Z,3.35
2019-05-02T20:11:43.340Z,3.87
2019-05-02T20:14:15.126Z,3.80
2019-05-02T20:16:50.243Z,4.53
2019-05-02T20:19:23.188Z,3.90
2019-05-02T20:22:02.859Z,4.33
2019-05-02T20:24:55.312Z,4.70
2019-05-02T20:27:28.262Z,4.55
2019-05-02T20:29:59.227Z,3.62
2019-05-02T20:32:32.244Z,4.35
2019-05-02T20:35:04.418Z,4.37
2019-05-02T20:37:36.341Z,3.60
2019-05-02T20:40:11.875Z,4.00
2019-05-02T20:42:42.825Z,4.40
2019-05-02T20:45:15.839Z,4.62
2019-05-02T20:47:47.367Z,4.15
2019-05-02T20:50:19.024Z,3.67
2019-05-02T20:52:52.418Z,4.20
2019-05-02T20:55:24.085Z,3.58
2019-05-02T20:57:55.932Z,3.95
2019-05-02T21:00:32.229Z,4.45
2019-05-02T21:03:03.851Z,4.50
2019-05-02T21:05:52.197Z,4.17
2019-05-02T21:08:26.136Z,4.95
2019-05-02T21:10:59.298Z,5.00
2019-05-02T21:13:32.730Z,4.05
2019-05-02T21:16:04.652Z,4.60
2019-05-02T21:18:36.417Z,4.55
2019-05-02T21:21:08.086Z,4.37
2019-05-02T21:23:44.757Z,4.25
2019-05-02T21:26:13.180Z,4.25
2019-05-02T21:28:46.232Z,4.92
2019-05-02T21:31:17.965Z,4.85
2019-05-02T21:33:49.619Z,5.33
2019-05-02T21:36:22.696Z,5.22
2019-05-02T21:38:54.182Z,4.83
2019-05-02T21:41:26.037Z,5.08
2019-05-02T21:43:57.780Z,4.85
2019-05-02T21:46:29.429Z,5.53
2019-05-02T21:49:01.289Z,5.40
2019-05-02T21:51:37.765Z,5.03
2019-05-02T21:54:27.360Z,6.22
2019-05-02T21:57:02.614Z,5.97
2019-05-02T21:59:35.148Z,6.47
2019-05-02T22:02:08.650Z,6.87
2019-05-02T22:04:42.185Z,7.62
2019-05-02T22:07:13.496Z,7.95
2019-05-02T22:09:44.946Z,8.58
2019-05-02T22:12:16.749Z,8.80
2019-05-02T22:14:48.254Z,10.20
2019-05-02T22:17:21.549Z,10.55
2019-05-02T22:19:53.202Z,10.00
2019-05-02T22:22:25.064Z,9.48
2019-05-02T22:24:56.939Z,9.70
2019-05-02T22:27:28.987Z,10.90
2019-05-02T22:30:02.098Z,9.48
2019-05-02T22:32:33.765Z,9.90
2019-05-02T22:35:07.023Z,9.88
2019-05-02T22:37:40.109Z,9.40
2019-05-02T22:40:13.623Z,9.45
2019-05-02T22:42:45.475Z,9.23
2019-05-02T22:45:17.231Z,9.10
2019-05-02T22:47:48.985Z,8.13
2019-05-02T22:50:22.061Z,8.63
2019-05-02T22:52:53.651Z,8.63
2019-05-02T22:55:25.081Z,8.13
2019-05-02T22:57:56.831Z,7.58
2019-05-02T23:00:28.393Z,7.75
2019-05-02T23:03:01.774Z,7.87
2019-05-02T23:05:34.422Z,7.10
2019-05-02T23:08:06.015Z,7.83
2019-05-02T23:10:37.399Z,7.12
2019-05-02T23:13:09.119Z,7.30
2019-05-02T23:15:42.710Z,6.80
2019-05-02T23:18:14.587Z,6.87
2019-05-02T23:20:46.268Z,6.97
2019-05-02T23:23:17.892Z,6.75
2019-05-02T23:26:07.897Z,7.00
2019-05-02T23:28:47.025Z,6.20
2019-05-02T23:31:18.765Z,6.95
2019-05-02T23:33:59.326Z,6.58
2019-05-02T23:36:32.630Z,6.83
2019-05-02T23:39:05.646Z,5.83
2019-05-02T23:41:37.479Z,7.35
2019-05-02T23:44:09.225Z,7.08
2019-05-02T23:46:42.444Z,7.45
2019-05-02T23:49:15.196Z,8.75
2019-05-02T23:51:46.752Z,9.25
2019-05-02T23:54:18.509Z,10.48
2019-05-02T23:56:50.466Z,11.60
2019-05-02T23:59:22.443Z,11.95
